AYNZ/LAE METAR and TAF weather

Enter ICAO airport designator
Station Type Date Time Source
AYNZ METAR 2018/10/16 09:00 UTC NOAA

AYNZ 160900Z 09015KT 9999 HZ SCT025 BKN040 BKN070 25/22 Q1010 RMK


Station Type Date Time Source
AYNZ Decoded METAR 2018/10/16 09:00 UTC NOAA

Station name not available
Oct 16, 2018 - 05:00 AM EDT / 2018.10.16 0900 UTC
Wind: from the E (090 degrees) at 17 MPH (15 KT):0
Visibility: greater than 7 mile(s):0
Sky conditions: mostly cloudy
Weather: haze
Temperature: 77 F (25 C)
Dew Point: 71 F (22 C)
Relative Humidity: 83%
Pressure (altimeter): 29.83 in. Hg (1010 hPa)
ob: AYNZ 160900Z 09015KT 9999 HZ SCT025 BKN040 BKN070 25/22 Q1010 RMK
cycle: 9

Station Type Date Time Source
AYNZ TAF 2015/08/19 08:15 UTC NOAA

TAF AYNZ 190550Z 1908/1920 09015KT 9999 SCT020 SCT120
FM191400 VRB03KT 9999 BKN040 Q 1011 1014 1013 1010


Example: see airport list